Clifford, Michigan
Current Conditions -  °F | °C
As of 4:35 PM on Thursday 23 Oct 2014 (Local Time) from KCFS Reporting Station
Clear Clear  
Wind Chill: 53°   Ceiling: Unl
Heat Index: 53°   Visibility: 10mi
Dew Point: 40°   Wind: 3mph
Humidity: 62%   Direction: 310°NW
Pressure: 30.13"   Gusts: NA
Location:  43.31°N, 83.18°W
Report Text: KCFS 232035Z AUTO 31003KT 10SM CLR 11/04 A3013 RMK AO2 T01140044
Loading
Personal Weather Stations






























Interactive Weather Map
Tropical Storm Tracking
New forecast layout! Learn more

10-Day Weather Forecast

Advertisements
Track Severe Weather on mobile